sensor_id;sensor_type;location;lat;lon;timestamp;temperature;humidity
26336;DHT22;14047;50.936;4.654;2023-12-28T00:00:11;10.90;99.90
26336;DHT22;14047;50.936;4.654;2023-12-28T00:02:37;10.90;99.90
26336;DHT22;14047;50.936;4.654;2023-12-28T00:05:03;10.80;99.90
26336;DHT22;14047;50.936;4.654;2023-12-28T00:07:29;10.70;99.90
26336;DHT22;14047;50.936;4.654;2023-12-28T00:09:55;10.80;99.90
26336;DHT22;14047;50.936;4.654;2023-12-28T00:12:21;10.80;99.90
26336;DHT22;14047;50.936;4.654;2023-12-28T00:14:48;10.70;99.90
26336;DHT22;14047;50.936;4.654;2023-12-28T00:17:14;10.80;99.90
26336;DHT22;14047;50.936;4.654;2023-12-28T00:19:40;10.70;99.90
26336;DHT22;14047;50.936;4.654;2023-12-28T00:22:06;10.80;99.90
26336;DHT22;14047;50.936;4.654;2023-12-28T00:24:32;10.80;99.90
26336;DHT22;14047;50.936;4.654;2023-12-28T00:26:58;10.90;99.90
26336;DHT22;14047;50.936;4.654;2023-12-28T00:29:23;11.00;99.90
26336;DHT22;14047;50.936;4.654;2023-12-28T00:31:49;11.00;99.90
26336;DHT22;14047;50.936;4.654;2023-12-28T00:34:16;11.10;99.90
26336;DHT22;14047;50.936;4.654;2023-12-28T00:36:42;11.00;99.90
26336;DHT22;14047;50.936;4.654;2023-12-28T00:39:08;11.10;99.90
26336;DHT22;14047;50.936;4.654;2023-12-28T00:41:34;11.10;99.90
26336;DHT22;14047;50.936;4.654;2023-12-28T00:44:00;11.00;99.90
26336;DHT22;14047;50.936;4.654;2023-12-28T00:46:27;11.00;99.90
26336;DHT22;14047;50.936;4.654;2023-12-28T00:48:53;11.00;99.90
26336;DHT22;14047;50.936;4.654;2023-12-28T00:51:20;11.00;99.90
26336;DHT22;14047;50.936;4.654;2023-12-28T00:53:48;11.00;99.90
26336;DHT22;14047;50.936;4.654;2023-12-28T00:56:14;10.90;99.90
26336;DHT22;14047;50.936;4.654;2023-12-28T00:58:40;11.00;99.90
26336;DHT22;14047;50.936;4.654;2023-12-28T01:01:06;11.10;99.90
26336;DHT22;14047;50.936;4.654;2023-12-28T01:03:32;11.10;99.90
26336;DHT22;14047;50.936;4.654;2023-12-28T01:05:58;11.10;99.90
26336;DHT22;14047;50.936;4.654;2023-12-28T01:08:24;11.10;99.90
26336;DHT22;14047;50.936;4.654;2023-12-28T01:10:50;11.00;99.90
26336;DHT22;14047;50.936;4.654;2023-12-28T01:13:16;11.00;99.90
26336;DHT22;14047;50.936;4.654;2023-12-28T01:15:41;11.00;99.90
26336;DHT22;14047;50.936;4.654;2023-12-28T01:18:08;11.00;99.90
26336;DHT22;14047;50.936;4.654;2023-12-28T01:20:33;11.00;99.90
26336;DHT22;14047;50.936;4.654;2023-12-28T01:23:01;10.90;99.90
26336;DHT22;14047;50.936;4.654;2023-12-28T01:25:26;11.00;99.90
26336;DHT22;14047;50.936;4.654;2023-12-28T01:27:52;11.00;99.90
26336;DHT22;14047;50.936;4.654;2023-12-28T01:30:18;11.00;99.90
26336;DHT22;14047;50.936;4.654;2023-12-28T01:32:44;10.90;99.90
26336;DHT22;14047;50.936;4.654;2023-12-28T01:35:10;10.90;99.90
26336;DHT22;14047;50.936;4.654;2023-12-28T01:37:36;10.90;99.90
26336;DHT22;14047;50.936;4.654;2023-12-28T01:40:02;10.90;99.90
26336;DHT22;14047;50.936;4.654;2023-12-28T01:42:29;10.90;99.90
26336;DHT22;14047;50.936;4.654;2023-12-28T01:44:59;10.90;99.90
26336;DHT22;14047;50.936;4.654;2023-12-28T01:47:25;10.90;99.90
26336;DHT22;14047;50.936;4.654;2023-12-28T01:49:52;10.90;99.90
26336;DHT22;14047;50.936;4.654;2023-12-28T01:52:20;10.90;99.90
26336;DHT22;14047;50.936;4.654;2023-12-28T01:54:46;11.00;99.90
26336;DHT22;14047;50.936;4.654;2023-12-28T01:57:13;11.00;99.90
26336;DHT22;14047;50.936;4.654;2023-12-28T01:59:40;10.90;99.90
26336;DHT22;14047;50.936;4.654;2023-12-28T02:02:07;11.00;99.90
26336;DHT22;14047;50.936;4.654;2023-12-28T02:04:33;11.00;99.90
26336;DHT22;14047;50.936;4.654;2023-12-28T02:07:00;11.10;99.90
26336;DHT22;14047;50.936;4.654;2023-12-28T02:09:26;11.20;99.90
26336;DHT22;14047;50.936;4.654;2023-12-28T02:11:52;11.30;99.90
26336;DHT22;14047;50.936;4.654;2023-12-28T02:14:20;11.10;99.90
26336;DHT22;14047;50.936;4.654;2023-12-28T02:16:53;11.10;99.90
26336;DHT22;14047;50.936;4.654;2023-12-28T02:19:55;11.10;99.90
26336;DHT22;14047;50.936;4.654;2023-12-28T02:22:25;11.10;99.90
26336;DHT22;14047;50.936;4.654;2023-12-28T02:25:12;11.10;99.90
26336;DHT22;14047;50.936;4.654;2023-12-28T02:27:41;11.30;99.90
26336;DHT22;14047;50.936;4.654;2023-12-28T02:30:09;11.40;99.90
26336;DHT22;14047;50.936;4.654;2023-12-28T02:32:40;11.50;99.90
26336;DHT22;14047;50.936;4.654;2023-12-28T02:35:19;11.40;99.90
26336;DHT22;14047;50.936;4.654;2023-12-28T02:37:50;11.40;99.90
26336;DHT22;14047;50.936;4.654;2023-12-28T02:40:17;11.30;99.90
26336;DHT22;14047;50.936;4.654;2023-12-28T02:42:43;11.40;99.90
26336;DHT22;14047;50.936;4.654;2023-12-28T02:45:09;11.40;99.90
26336;DHT22;14047;50.936;4.654;2023-12-28T02:47:35;11.40;99.90
26336;DHT22;14047;50.936;4.654;2023-12-28T02:50:01;11.40;99.90
26336;DHT22;14047;50.936;4.654;2023-12-28T02:52:27;11.40;99.90
26336;DHT22;14047;50.936;4.654;2023-12-28T02:54:53;11.30;99.90
26336;DHT22;14047;50.936;4.654;2023-12-28T02:57:19;11.20;99.90
26336;DHT22;14047;50.936;4.654;2023-12-28T02:59:45;11.20;99.90
26336;DHT22;14047;50.936;4.654;2023-12-28T03:02:11;11.10;99.90
26336;DHT22;14047;50.936;4.654;2023-12-28T03:04:37;11.10;99.90
26336;DHT22;14047;50.936;4.654;2023-12-28T03:07:04;11.20;99.90
26336;DHT22;14047;50.936;4.654;2023-12-28T03:09:30;11.30;99.90
26336;DHT22;14047;50.936;4.654;2023-12-28T03:11:56;11.30;99.90
26336;DHT22;14047;50.936;4.654;2023-12-28T03:14:22;11.30;99.90
26336;DHT22;14047;50.936;4.654;2023-12-28T03:16:48;11.20;99.90
26336;DHT22;14047;50.936;4.654;2023-12-28T03:19:14;11.20;99.90
26336;DHT22;14047;50.936;4.654;2023-12-28T03:21:40;11.20;99.90
26336;DHT22;14047;50.936;4.654;2023-12-28T03:24:06;11.10;99.90
26336;DHT22;14047;50.936;4.654;2023-12-28T03:26:32;11.20;99.90
26336;DHT22;14047;50.936;4.654;2023-12-28T03:29:02;11.20;99.90
26336;DHT22;14047;50.936;4.654;2023-12-28T03:31:28;11.20;99.90
26336;DHT22;14047;50.936;4.654;2023-12-28T03:33:54;11.20;99.90
26336;DHT22;14047;50.936;4.654;2023-12-28T03:36:20;11.20;99.90
26336;DHT22;14047;50.936;4.654;2023-12-28T03:38:46;11.20;99.90
26336;DHT22;14047;50.936;4.654;2023-12-28T03:41:19;11.10;99.90
26336;DHT22;14047;50.936;4.654;2023-12-28T03:43:46;11.10;99.90
26336;DHT22;14047;50.936;4.654;2023-12-28T03:46:12;11.10;99.90
26336;DHT22;14047;50.936;4.654;2023-12-28T03:48:38;11.10;99.90
26336;DHT22;14047;50.936;4.654;2023-12-28T03:51:05;11.10;99.90
26336;DHT22;14047;50.936;4.654;2023-12-28T03:53:31;11.00;99.90
26336;DHT22;14047;50.936;4.654;2023-12-28T03:56:01;11.10;99.90
26336;DHT22;14047;50.936;4.654;2023-12-28T03:58:26;11.10;99.90
26336;DHT22;14047;50.936;4.654;2023-12-28T04:00:52;11.20;99.90
26336;DHT22;14047;50.936;4.654;2023-12-28T04:03:18;11.20;99.90
26336;DHT22;14047;50.936;4.654;2023-12-28T04:05:44;11.10;99.90
26336;DHT22;14047;50.936;4.654;2023-12-28T04:08:10;11.00;99.90
26336;DHT22;14047;50.936;4.654;2023-12-28T04:10:36;11.20;99.90
26336;DHT22;14047;50.936;4.654;2023-12-28T04:13:05;11.30;99.90
26336;DHT22;14047;50.936;4.654;2023-12-28T04:15:31;11.30;99.90
26336;DHT22;14047;50.936;4.654;2023-12-28T04:17:57;11.20;99.90
26336;DHT22;14047;50.936;4.654;2023-12-28T04:20:23;11.30;99.90
26336;DHT22;14047;50.936;4.654;2023-12-28T04:22:50;11.30;99.90
26336;DHT22;14047;50.936;4.654;2023-12-28T04:25:16;11.30;99.90
26336;DHT22;14047;50.936;4.654;2023-12-28T04:27:42;11.30;99.90
26336;DHT22;14047;50.936;4.654;2023-12-28T04:30:12;11.20;99.90
26336;DHT22;14047;50.936;4.654;2023-12-28T04:32:38;11.20;99.90
26336;DHT22;14047;50.936;4.654;2023-12-28T04:35:05;11.20;99.90
26336;DHT22;14047;50.936;4.654;2023-12-28T04:37:32;11.10;99.90
26336;DHT22;14047;50.936;4.654;2023-12-28T04:39:58;11.10;99.90
26336;DHT22;14047;50.936;4.654;2023-12-28T04:42:24;11.20;99.90
26336;DHT22;14047;50.936;4.654;2023-12-28T04:44:50;11.10;99.90
26336;DHT22;14047;50.936;4.654;2023-12-28T04:47:16;11.10;99.90
26336;DHT22;14047;50.936;4.654;2023-12-28T04:49:42;11.10;99.90
26336;DHT22;14047;50.936;4.654;2023-12-28T04:52:08;11.00;99.90
26336;DHT22;14047;50.936;4.654;2023-12-28T04:54:34;11.10;99.90
26336;DHT22;14047;50.936;4.654;2023-12-28T04:57:00;11.10;99.90
26336;DHT22;14047;50.936;4.654;2023-12-28T04:59:25;11.00;99.90
26336;DHT22;14047;50.936;4.654;2023-12-28T05:01:51;11.00;99.90
26336;DHT22;14047;50.936;4.654;2023-12-28T05:04:17;11.10;99.90
26336;DHT22;14047;50.936;4.654;2023-12-28T05:06:43;11.10;99.90
26336;DHT22;14047;50.936;4.654;2023-12-28T05:09:09;11.10;99.90
26336;DHT22;14047;50.936;4.654;2023-12-28T05:11:35;11.10;99.90
26336;DHT22;14047;50.936;4.654;2023-12-28T05:14:01;11.10;99.90
26336;DHT22;14047;50.936;4.654;2023-12-28T05:16:27;11.10;99.90
26336;DHT22;14047;50.936;4.654;2023-12-28T05:18:52;11.00;99.90
26336;DHT22;14047;50.936;4.654;2023-12-28T05:21:18;11.00;99.90
26336;DHT22;14047;50.936;4.654;2023-12-28T05:23:45;10.90;99.90
26336;DHT22;14047;50.936;4.654;2023-12-28T05:26:11;10.80;99.90
26336;DHT22;14047;50.936;4.654;2023-12-28T05:28:37;10.80;99.90
26336;DHT22;14047;50.936;4.654;2023-12-28T05:31:03;10.80;99.90
26336;DHT22;14047;50.936;4.654;2023-12-28T05:33:29;10.70;99.90
26336;DHT22;14047;50.936;4.654;2023-12-28T05:35:55;10.80;99.90
26336;DHT22;14047;50.936;4.654;2023-12-28T05:38:21;10.80;99.90
26336;DHT22;14047;50.936;4.654;2023-12-28T05:40:47;10.90;99.90
26336;DHT22;14047;50.936;4.654;2023-12-28T05:43:13;10.90;99.90
26336;DHT22;14047;50.936;4.654;2023-12-28T05:45:39;11.00;99.90
26336;DHT22;14047;50.936;4.654;2023-12-28T05:48:05;10.90;99.90
26336;DHT22;14047;50.936;4.654;2023-12-28T05:50:31;10.90;99.90
26336;DHT22;14047;50.936;4.654;2023-12-28T05:52:57;10.90;99.90
26336;DHT22;14047;50.936;4.654;2023-12-28T05:55:23;10.90;99.90
26336;DHT22;14047;50.936;4.654;2023-12-28T05:57:48;10.90;99.90
26336;DHT22;14047;50.936;4.654;2023-12-28T06:00:15;10.90;99.90
26336;DHT22;14047;50.936;4.654;2023-12-28T06:02:41;11.00;99.90
26336;DHT22;14047;50.936;4.654;2023-12-28T06:05:07;10.90;99.90
26336;DHT22;14047;50.936;4.654;2023-12-28T06:07:33;10.90;99.90
26336;DHT22;14047;50.936;4.654;2023-12-28T06:09:59;10.80;99.90
26336;DHT22;14047;50.936;4.654;2023-12-28T06:12:25;10.80;99.90
26336;DHT22;14047;50.936;4.654;2023-12-28T06:14:51;10.70;99.90
26336;DHT22;14047;50.936;4.654;2023-12-28T06:17:17;10.80;99.90
26336;DHT22;14047;50.936;4.654;2023-12-28T06:19:44;10.80;99.90
26336;DHT22;14047;50.936;4.654;2023-12-28T06:22:10;10.80;99.90
26336;DHT22;14047;50.936;4.654;2023-12-28T06:24:39;10.80;99.90
26336;DHT22;14047;50.936;4.654;2023-12-28T06:27:06;10.80;99.90
26336;DHT22;14047;50.936;4.654;2023-12-28T06:29:32;10.70;99.90
26336;DHT22;14047;50.936;4.654;2023-12-28T06:31:57;10.80;99.90
26336;DHT22;14047;50.936;4.654;2023-12-28T06:34:23;10.80;99.90
26336;DHT22;14047;50.936;4.654;2023-12-28T06:36:49;10.70;99.90
26336;DHT22;14047;50.936;4.654;2023-12-28T06:39:15;10.80;99.90
26336;DHT22;14047;50.936;4.654;2023-12-28T06:41:41;10.70;99.90
26336;DHT22;14047;50.936;4.654;2023-12-28T06:44:07;10.70;99.90
26336;DHT22;14047;50.936;4.654;2023-12-28T06:46:34;10.70;99.90
26336;DHT22;14047;50.936;4.654;2023-12-28T06:49:00;10.70;99.90
26336;DHT22;14047;50.936;4.654;2023-12-28T06:51:26;10.70;99.90
26336;DHT22;14047;50.936;4.654;2023-12-28T06:53:52;10.70;99.90
26336;DHT22;14047;50.936;4.654;2023-12-28T06:56:18;10.60;99.90
26336;DHT22;14047;50.936;4.654;2023-12-28T06:58:44;10.60;99.90
26336;DHT22;14047;50.936;4.654;2023-12-28T07:01:10;10.60;99.90
26336;DHT22;14047;50.936;4.654;2023-12-28T07:03:36;10.60;99.90
26336;DHT22;14047;50.936;4.654;2023-12-28T07:06:02;10.50;99.90
26336;DHT22;14047;50.936;4.654;2023-12-28T07:08:29;10.50;99.90
26336;DHT22;14047;50.936;4.654;2023-12-28T07:10:54;10.50;99.90
26336;DHT22;14047;50.936;4.654;2023-12-28T07:13:20;10.40;99.90
26336;DHT22;14047;50.936;4.654;2023-12-28T07:15:46;10.50;99.90
26336;DHT22;14047;50.936;4.654;2023-12-28T07:18:12;10.40;99.90
26336;DHT22;14047;50.936;4.654;2023-12-28T07:20:38;10.40;99.90
26336;DHT22;14047;50.936;4.654;2023-12-28T07:23:04;10.50;99.90
26336;DHT22;14047;50.936;4.654;2023-12-28T07:25:30;10.40;99.90
26336;DHT22;14047;50.936;4.654;2023-12-28T07:27:56;10.50;99.90
26336;DHT22;14047;50.936;4.654;2023-12-28T07:30:21;10.40;99.90
26336;DHT22;14047;50.936;4.654;2023-12-28T07:32:47;10.40;99.90
26336;DHT22;14047;50.936;4.654;2023-12-28T07:35:13;10.50;99.90
26336;DHT22;14047;50.936;4.654;2023-12-28T07:37:39;10.50;99.90
26336;DHT22;14047;50.936;4.654;2023-12-28T07:40:06;10.60;99.90
26336;DHT22;14047;50.936;4.654;2023-12-28T07:42:32;10.50;99.90
26336;DHT22;14047;50.936;4.654;2023-12-28T07:44:58;10.60;99.90
26336;DHT22;14047;50.936;4.654;2023-12-28T07:47:23;10.50;99.90
26336;DHT22;14047;50.936;4.654;2023-12-28T07:49:49;10.50;99.90
26336;DHT22;14047;50.936;4.654;2023-12-28T07:52:15;10.50;99.90
26336;DHT22;14047;50.936;4.654;2023-12-28T07:54:41;10.50;99.90
26336;DHT22;14047;50.936;4.654;2023-12-28T07:57:07;10.50;99.90
26336;DHT22;14047;50.936;4.654;2023-12-28T07:59:33;10.40;99.90
26336;DHT22;14047;50.936;4.654;2023-12-28T08:02:01;10.40;99.90
26336;DHT22;14047;50.936;4.654;2023-12-28T08:04:27;10.40;99.90
26336;DHT22;14047;50.936;4.654;2023-12-28T08:06:53;10.50;99.90
26336;DHT22;14047;50.936;4.654;2023-12-28T08:09:19;10.60;99.90
26336;DHT22;14047;50.936;4.654;2023-12-28T08:11:45;10.50;99.90
26336;DHT22;14047;50.936;4.654;2023-12-28T08:14:11;10.60;99.90
26336;DHT22;14047;50.936;4.654;2023-12-28T08:16:37;10.60;99.90
26336;DHT22;14047;50.936;4.654;2023-12-28T08:19:03;10.70;99.90
26336;DHT22;14047;50.936;4.654;2023-12-28T08:21:29;10.70;99.90
26336;DHT22;14047;50.936;4.654;2023-12-28T08:23:55;10.70;99.90
26336;DHT22;14047;50.936;4.654;2023-12-28T08:26:21;10.60;99.90
26336;DHT22;14047;50.936;4.654;2023-12-28T08:28:47;10.70;99.90
26336;DHT22;14047;50.936;4.654;2023-12-28T08:31:13;10.80;99.90
26336;DHT22;14047;50.936;4.654;2023-12-28T08:33:39;10.90;99.90
26336;DHT22;14047;50.936;4.654;2023-12-28T08:36:06;10.90;99.90
26336;DHT22;14047;50.936;4.654;2023-12-28T08:38:32;10.80;99.90
26336;DHT22;14047;50.936;4.654;2023-12-28T08:40:58;10.90;99.90
26336;DHT22;14047;50.936;4.654;2023-12-28T08:43:24;10.90;99.90
26336;DHT22;14047;50.936;4.654;2023-12-28T08:45:50;10.90;99.90
26336;DHT22;14047;50.936;4.654;2023-12-28T08:48:16;10.80;99.90
26336;DHT22;14047;50.936;4.654;2023-12-28T08:50:42;10.90;99.90
26336;DHT22;14047;50.936;4.654;2023-12-28T08:53:08;11.00;99.90
26336;DHT22;14047;50.936;4.654;2023-12-28T08:55:34;11.10;99.90
26336;DHT22;14047;50.936;4.654;2023-12-28T08:58:00;11.20;99.90
26336;DHT22;14047;50.936;4.654;2023-12-28T09:00:26;11.20;99.90
26336;DHT22;14047;50.936;4.654;2023-12-28T09:02:52;11.20;99.90
26336;DHT22;14047;50.936;4.654;2023-12-28T09:05:18;11.20;99.90
26336;DHT22;14047;50.936;4.654;2023-12-28T09:07:44;11.20;99.90
26336;DHT22;14047;50.936;4.654;2023-12-28T09:10:11;11.10;99.90
26336;DHT22;14047;50.936;4.654;2023-12-28T09:12:37;11.20;99.90
26336;DHT22;14047;50.936;4.654;2023-12-28T09:15:07;11.20;99.90
26336;DHT22;14047;50.936;4.654;2023-12-28T09:17:34;11.30;99.90
26336;DHT22;14047;50.936;4.654;2023-12-28T09:20:00;11.40;99.90
26336;DHT22;14047;50.936;4.654;2023-12-28T09:22:27;11.30;99.90
26336;DHT22;14047;50.936;4.654;2023-12-28T09:24:53;11.30;99.90
26336;DHT22;14047;50.936;4.654;2023-12-28T09:27:19;11.40;99.90
26336;DHT22;14047;50.936;4.654;2023-12-28T09:29:45;11.50;99.90
26336;DHT22;14047;50.936;4.654;2023-12-28T09:32:11;11.50;99.90
26336;DHT22;14047;50.936;4.654;2023-12-28T09:34:37;11.40;99.90
26336;DHT22;14047;50.936;4.654;2023-12-28T09:37:03;11.30;99.90
26336;DHT22;14047;50.936;4.654;2023-12-28T09:39:29;11.40;99.90
26336;DHT22;14047;50.936;4.654;2023-12-28T09:41:59;11.60;99.90
26336;DHT22;14047;50.936;4.654;2023-12-28T09:44:29;11.50;99.90
26336;DHT22;14047;50.936;4.654;2023-12-28T09:46:56;11.50;99.90
26336;DHT22;14047;50.936;4.654;2023-12-28T09:49:23;11.50;99.90
26336;DHT22;14047;50.936;4.654;2023-12-28T09:51:49;11.50;99.90
26336;DHT22;14047;50.936;4.654;2023-12-28T09:54:15;11.60;99.90
26336;DHT22;14047;50.936;4.654;2023-12-28T09:56:42;11.60;99.90
26336;DHT22;14047;50.936;4.654;2023-12-28T09:59:08;11.60;99.90
26336;DHT22;14047;50.936;4.654;2023-12-28T10:01:35;11.70;99.90
26336;DHT22;14047;50.936;4.654;2023-12-28T10:04:02;11.60;99.90
26336;DHT22;14047;50.936;4.654;2023-12-28T10:06:31;11.50;99.90
26336;DHT22;14047;50.936;4.654;2023-12-28T10:08:57;11.60;99.90
26336;DHT22;14047;50.936;4.654;2023-12-28T10:11:23;11.60;99.90
26336;DHT22;14047;50.936;4.654;2023-12-28T10:13:51;11.60;99.90
26336;DHT22;14047;50.936;4.654;2023-12-28T10:16:17;11.70;99.90
26336;DHT22;14047;50.936;4.654;2023-12-28T10:18:43;11.70;99.90
26336;DHT22;14047;50.936;4.654;2023-12-28T10:21:10;11.60;99.90
26336;DHT22;14047;50.936;4.654;2023-12-28T10:23:36;11.60;99.90
26336;DHT22;14047;50.936;4.654;2023-12-28T10:26:03;11.60;99.90
26336;DHT22;14047;50.936;4.654;2023-12-28T10:28:35;11.60;99.90
26336;DHT22;14047;50.936;4.654;2023-12-28T10:31:03;11.60;99.90
26336;DHT22;14047;50.936;4.654;2023-12-28T10:33:34;11.60;99.90
26336;DHT22;14047;50.936;4.654;2023-12-28T10:36:06;11.60;99.90
26336;DHT22;14047;50.936;4.654;2023-12-28T10:38:36;11.70;99.90
26336;DHT22;14047;50.936;4.654;2023-12-28T10:41:08;11.80;99.90
26336;DHT22;14047;50.936;4.654;2023-12-28T10:43:46;11.80;99.90
26336;DHT22;14047;50.936;4.654;2023-12-28T10:46:25;11.70;99.90
26336;DHT22;14047;50.936;4.654;2023-12-28T10:48:59;11.70;99.90
26336;DHT22;14047;50.936;4.654;2023-12-28T10:51:26;11.70;99.90
26336;DHT22;14047;50.936;4.654;2023-12-28T11:02:04;11.80;99.90
26336;DHT22;14047;50.936;4.654;2023-12-28T11:04:40;11.80;99.90
26336;DHT22;14047;50.936;4.654;2023-12-28T11:07:10;11.80;99.90
26336;DHT22;14047;50.936;4.654;2023-12-28T11:09:41;11.80;99.90
26336;DHT22;14047;50.936;4.654;2023-12-28T11:12:08;11.80;99.90
26336;DHT22;14047;50.936;4.654;2023-12-28T11:14:42;11.90;99.90
26336;DHT22;14047;50.936;4.654;2023-12-28T11:17:11;12.00;99.90
26336;DHT22;14047;50.936;4.654;2023-12-28T11:19:37;12.00;99.90
26336;DHT22;14047;50.936;4.654;2023-12-28T11:22:04;11.90;99.90
26336;DHT22;14047;50.936;4.654;2023-12-28T11:24:31;12.00;99.90
26336;DHT22;14047;50.936;4.654;2023-12-28T11:26:58;12.00;99.90
26336;DHT22;14047;50.936;4.654;2023-12-28T11:29:24;12.00;99.90
26336;DHT22;14047;50.936;4.654;2023-12-28T11:31:51;11.90;99.90
26336;DHT22;14047;50.936;4.654;2023-12-28T11:34:17;11.90;99.90
26336;DHT22;14047;50.936;4.654;2023-12-28T11:36:51;11.90;99.90
26336;DHT22;14047;50.936;4.654;2023-12-28T11:39:33;11.90;99.90
26336;DHT22;14047;50.936;4.654;2023-12-28T11:42:01;12.00;99.90
26336;DHT22;14047;50.936;4.654;2023-12-28T11:44:29;11.90;99.90
26336;DHT22;14047;50.936;4.654;2023-12-28T11:46:55;12.00;99.90
26336;DHT22;14047;50.936;4.654;2023-12-28T11:49:26;12.00;99.90
26336;DHT22;14047;50.936;4.654;2023-12-28T11:51:56;12.00;99.90
26336;DHT22;14047;50.936;4.654;2023-12-28T11:54:24;12.10;99.90
26336;DHT22;14047;50.936;4.654;2023-12-28T11:56:51;12.10;99.90
26336;DHT22;14047;50.936;4.654;2023-12-28T11:59:19;12.10;99.90
26336;DHT22;14047;50.936;4.654;2023-12-28T12:01:50;12.10;99.90
26336;DHT22;14047;50.936;4.654;2023-12-28T12:04:18;12.10;99.90
26336;DHT22;14047;50.936;4.654;2023-12-28T12:06:45;12.10;99.90
26336;DHT22;14047;50.936;4.654;2023-12-28T12:09:13;12.00;99.90
26336;DHT22;14047;50.936;4.654;2023-12-28T12:11:39;12.10;99.90
26336;DHT22;14047;50.936;4.654;2023-12-28T12:14:09;12.10;99.90
26336;DHT22;14047;50.936;4.654;2023-12-28T12:16:37;12.10;99.90
26336;DHT22;14047;50.936;4.654;2023-12-28T12:19:06;12.20;99.90
26336;DHT22;14047;50.936;4.654;2023-12-28T12:21:34;12.20;99.90
26336;DHT22;14047;50.936;4.654;2023-12-28T12:24:00;12.20;99.90
26336;DHT22;14047;50.936;4.654;2023-12-28T12:26:30;12.20;99.90
26336;DHT22;14047;50.936;4.654;2023-12-28T12:28:57;12.30;99.90
26336;DHT22;14047;50.936;4.654;2023-12-28T12:31:24;12.30;99.90
26336;DHT22;14047;50.936;4.654;2023-12-28T12:33:51;12.40;99.90
26336;DHT22;14047;50.936;4.654;2023-12-28T12:36:18;12.30;99.90
26336;DHT22;14047;50.936;4.654;2023-12-28T12:38:44;12.30;99.90
26336;DHT22;14047;50.936;4.654;2023-12-28T12:41:13;12.40;99.90
26336;DHT22;14047;50.936;4.654;2023-12-28T12:43:40;12.50;99.90
26336;DHT22;14047;50.936;4.654;2023-12-28T12:46:06;12.40;99.90
26336;DHT22;14047;50.936;4.654;2023-12-28T12:48:32;12.40;99.90
26336;DHT22;14047;50.936;4.654;2023-12-28T12:51:02;12.40;99.90
26336;DHT22;14047;50.936;4.654;2023-12-28T12:53:35;12.40;99.90
26336;DHT22;14047;50.936;4.654;2023-12-28T12:56:03;12.30;99.90
26336;DHT22;14047;50.936;4.654;2023-12-28T12:58:31;12.20;99.90
26336;DHT22;14047;50.936;4.654;2023-12-28T13:00:57;12.30;99.90
26336;DHT22;14047;50.936;4.654;2023-12-28T13:03:27;12.40;99.90
26336;DHT22;14047;50.936;4.654;2023-12-28T13:05:55;12.40;99.90
26336;DHT22;14047;50.936;4.654;2023-12-28T13:08:22;12.20;99.90
26336;DHT22;14047;50.936;4.654;2023-12-28T13:10:48;12.40;99.90
26336;DHT22;14047;50.936;4.654;2023-12-28T13:13:15;12.40;99.90
26336;DHT22;14047;50.936;4.654;2023-12-28T13:15:41;12.50;99.90
26336;DHT22;14047;50.936;4.654;2023-12-28T13:18:07;12.40;99.90
26336;DHT22;14047;50.936;4.654;2023-12-28T13:20:33;12.10;99.90
26336;DHT22;14047;50.936;4.654;2023-12-28T13:22:59;12.20;99.90
26336;DHT22;14047;50.936;4.654;2023-12-28T13:25:25;12.20;99.90
26336;DHT22;14047;50.936;4.654;2023-12-28T13:27:51;12.40;99.90
26336;DHT22;14047;50.936;4.654;2023-12-28T13:30:17;12.40;99.90
26336;DHT22;14047;50.936;4.654;2023-12-28T13:32:43;12.20;99.90
26336;DHT22;14047;50.936;4.654;2023-12-28T13:35:08;12.30;99.90
26336;DHT22;14047;50.936;4.654;2023-12-28T13:37:34;12.40;99.90
26336;DHT22;14047;50.936;4.654;2023-12-28T13:40:00;12.30;99.90
26336;DHT22;14047;50.936;4.654;2023-12-28T13:42:26;12.30;99.90
26336;DHT22;14047;50.936;4.654;2023-12-28T13:44:52;12.20;99.90
26336;DHT22;14047;50.936;4.654;2023-12-28T13:47:18;12.30;99.90
26336;DHT22;14047;50.936;4.654;2023-12-28T13:49:44;12.30;99.90
26336;DHT22;14047;50.936;4.654;2023-12-28T13:52:10;12.20;99.90
26336;DHT22;14047;50.936;4.654;2023-12-28T13:54:36;12.20;99.90
26336;DHT22;14047;50.936;4.654;2023-12-28T13:57:02;12.10;99.90
26336;DHT22;14047;50.936;4.654;2023-12-28T13:59:28;12.10;99.90
26336;DHT22;14047;50.936;4.654;2023-12-28T14:01:54;11.90;99.90
26336;DHT22;14047;50.936;4.654;2023-12-28T14:04:19;11.90;99.90
26336;DHT22;14047;50.936;4.654;2023-12-28T14:06:45;12.00;99.90
26336;DHT22;14047;50.936;4.654;2023-12-28T14:09:11;11.90;99.90
26336;DHT22;14047;50.936;4.654;2023-12-28T14:11:38;11.90;99.90
26336;DHT22;14047;50.936;4.654;2023-12-28T14:14:04;11.90;99.90
26336;DHT22;14047;50.936;4.654;2023-12-28T14:16:30;11.90;99.90
26336;DHT22;14047;50.936;4.654;2023-12-28T14:18:56;11.80;99.90
26336;DHT22;14047;50.936;4.654;2023-12-28T14:21:22;11.80;99.90
26336;DHT22;14047;50.936;4.654;2023-12-28T14:23:48;11.80;99.90
26336;DHT22;14047;50.936;4.654;2023-12-28T14:26:15;11.80;99.90
26336;DHT22;14047;50.936;4.654;2023-12-28T14:28:42;11.80;99.90
26336;DHT22;14047;50.936;4.654;2023-12-28T14:31:12;11.70;99.90
26336;DHT22;14047;50.936;4.654;2023-12-28T14:33:38;11.60;99.90
26336;DHT22;14047;50.936;4.654;2023-12-28T14:36:35;11.70;99.90
26336;DHT22;14047;50.936;4.654;2023-12-28T14:39:07;11.70;99.90
26336;DHT22;14047;50.936;4.654;2023-12-28T14:41:34;11.70;99.90
26336;DHT22;14047;50.936;4.654;2023-12-28T14:44:00;11.70;99.90
26336;DHT22;14047;50.936;4.654;2023-12-28T14:46:27;11.70;99.90
26336;DHT22;14047;50.936;4.654;2023-12-28T14:48:53;11.70;99.90
26336;DHT22;14047;50.936;4.654;2023-12-28T14:51:19;11.60;99.90
26336;DHT22;14047;50.936;4.654;2023-12-28T14:53:45;11.50;99.90
26336;DHT22;14047;50.936;4.654;2023-12-28T14:56:12;11.60;99.90
26336;DHT22;14047;50.936;4.654;2023-12-28T14:58:38;11.60;99.90
26336;DHT22;14047;50.936;4.654;2023-12-28T15:01:05;11.60;99.90
26336;DHT22;14047;50.936;4.654;2023-12-28T15:03:31;11.60;99.90
26336;DHT22;14047;50.936;4.654;2023-12-28T15:05:57;11.60;99.90
26336;DHT22;14047;50.936;4.654;2023-12-28T15:08:24;11.60;99.90
26336;DHT22;14047;50.936;4.654;2023-12-28T15:10:51;11.60;99.90
26336;DHT22;14047;50.936;4.654;2023-12-28T15:13:17;11.60;99.90
26336;DHT22;14047;50.936;4.654;2023-12-28T15:15:44;11.60;99.90
26336;DHT22;14047;50.936;4.654;2023-12-28T15:18:10;11.50;99.90
26336;DHT22;14047;50.936;4.654;2023-12-28T15:20:36;11.50;99.90
26336;DHT22;14047;50.936;4.654;2023-12-28T15:23:03;11.50;99.90
26336;DHT22;14047;50.936;4.654;2023-12-28T15:25:28;11.60;99.90
26336;DHT22;14047;50.936;4.654;2023-12-28T15:27:54;11.50;99.90
26336;DHT22;14047;50.936;4.654;2023-12-28T15:30:21;11.60;99.90
26336;DHT22;14047;50.936;4.654;2023-12-28T15:32:47;11.60;99.90
26336;DHT22;14047;50.936;4.654;2023-12-28T15:35:13;11.70;99.90